Time;durP1;ratioP1;P1;durP2;ratioP2;P2;SDS_P1;SDS_P2;PMS_P1;PMS_P2;Temp;Humidity;BMP_temperature;BMP_pressure;BME280_temperature;BME280_humidity;BME280_pressure;Samples;Min_cycle;Max_cycle;Signal;HPM_P1;HPM_P2
2023/06/21 00:02:25;;;;;;;0.00;0.00;;;;;;;18.32;99.79;99087.00;5091595;28;20063;-62
2023/06/21 00:04:55;;;;;;;0.00;0.00;;;;;;;18.15;100.00;99081.34;5077232;28;20047;-65
2023/06/21 00:07:23;;;;;;;;;;;;;;;18.11;100.00;99093.84;5081119;28;20054;-63
2023/06/21 00:09:52;;;;;;;0.00;0.00;;;;;;;18.19;100.00;99087.75;5077385;28;19924;-63
2023/06/21 00:12:22;;;;;;;0.00;0.00;;;;;;;18.06;100.00;99094.75;5081128;28;20135;-63
2023/06/21 00:14:49;;;;;;;0.00;0.00;;;;;;;18.16;100.00;99099.19;5080754;28;20030;-62
2023/06/21 00:17:26;;;;;;;0.00;0.00;;;;;;;18.14;100.00;99104.09;5079616;28;20040;-63
2023/06/21 00:19:55;;;;;;;0.00;0.00;;;;;;;18.11;100.00;99110.13;5080208;28;20387;-63
2023/06/21 00:22:22;;;;;;;0.00;0.00;;;;;;;18.05;100.00;99097.75;5082667;28;20230;-63
2023/06/21 00:24:49;;;;;;;0.00;0.00;;;;;;;17.99;100.00;99109.78;5089016;28;20059;-63
2023/06/21 00:27:17;;;;;;;0.10;0.10;;;;;;;17.72;100.00;99111.19;5079598;28;20040;-63
2023/06/21 00:29:46;;;;;;;0.00;0.00;;;;;;;17.76;100.00;99104.09;5066406;28;20144;-63
2023/06/21 00:32:13;;;;;;;0.10;0.10;;;;;;;17.75;100.00;99099.00;5083740;28;20044;-62
2023/06/21 00:34:41;;;;;;;0.00;0.00;;;;;;;17.92;100.00;99098.50;5089516;28;20055;-63
2023/06/21 00:37:11;;;;;;;0.00;0.00;;;;;;;17.69;100.00;99098.25;5087441;28;20173;-63
2023/06/21 00:39:38;;;;;;;0.00;0.00;;;;;;;17.72;100.00;99092.22;5087304;28;20055;-63
2023/06/21 00:42:06;;;;;;;0.00;0.00;;;;;;;17.86;100.00;99103.97;5085242;28;20064;-63
2023/06/21 00:44:33;;;;;;;0.10;0.10;;;;;;;17.87;100.00;99093.94;5063018;28;20060;-63
2023/06/21 00:47:02;;;;;;;0.10;0.10;;;;;;;17.92;100.00;99103.91;5079430;28;20112;-63
2023/06/21 00:49:29;;;;;;;0.00;0.00;;;;;;;17.81;100.00;99108.69;5083182;28;20083;-63
2023/06/21 00:51:57;;;;;;;0.08;0.08;;;;;;;17.82;100.00;99111.13;5084158;28;20128;-63
2023/06/21 00:54:26;;;;;;;0.10;0.10;;;;;;;17.84;100.00;99106.19;5087250;28;20147;-63
2023/06/21 00:56:56;;;;;;;0.10;0.10;;;;;;;17.89;100.00;99111.53;5075825;28;20503;-63
2023/06/21 00:59:23;;;;;;;0.17;0.10;;;;;;;17.84;100.00;99127.88;5071689;28;20042;-63
2023/06/21 01:01:50;;;;;;;0.00;0.00;;;;;;;17.84;100.00;99130.56;5077649;28;20167;-63
2023/06/21 01:04:19;;;;;;;0.13;0.10;;;;;;;17.75;100.00;99140.44;5077286;28;20041;-63
2023/06/21 01:06:48;;;;;;;0.00;0.00;;;;;;;17.79;100.00;99149.59;5082665;28;20501;-63
2023/06/21 01:09:22;;;;;;;0.08;0.08;;;;;;;17.97;100.00;99145.34;5073027;28;20063;-63
2023/06/21 01:11:52;;;;;;;0.00;0.00;;;;;;;18.12;100.00;99141.56;5075643;28;20329;-64
2023/06/21 01:14:21;;;;;;;;;;;;;;;18.24;100.00;99150.06;5081477;28;20043;-63
2023/06/21 01:16:50;;;;;;;0.10;0.10;;;;;;;18.25;100.00;99159.81;5084810;28;20035;-63
2023/06/21 01:19:25;;;;;;;0.00;0.00;;;;;;;18.03;100.00;99148.78;5078085;28;20553;-63
2023/06/21 01:21:52;;;;;;;0.10;0.00;;;;;;;17.55;100.00;99148.84;5084284;28;20041;-63
2023/06/21 01:24:25;;;;;;;0.00;0.00;;;;;;;17.32;100.00;99147.75;5080156;28;20075;-63
2023/06/21 01:27:27;;;;;;;0.10;0.10;;;;;;;17.30;100.00;99152.66;5077277;28;20044;-63
2023/06/21 01:29:56;;;;;;;0.00;0.00;;;;;;;17.36;100.00;99146.88;5065330;28;20289;-63
2023/06/21 01:32:24;;;;;;;0.00;0.00;;;;;;;17.22;100.00;99152.22;5076199;28;20097;-63
2023/06/21 01:34:53;;;;;;;0.00;0.00;;;;;;;16.95;100.00;99155.47;5065073;28;20036;-63
2023/06/21 01:37:23;;;;;;;0.00;0.00;;;;;;;16.96;100.00;99161.69;5077055;28;20040;-63
2023/06/21 01:39:52;;;;;;;0.00;0.00;;;;;;;16.98;100.00;99157.59;5084049;28;20040;-63
2023/06/21 01:42:19;;;;;;;0.00;0.00;;;;;;;17.01;100.00;99157.03;5082379;28;20517;-63
2023/06/21 01:44:47;;;;;;;0.00;0.00;;;;;;;16.99;100.00;99161.09;5073298;28;20044;-63
2023/06/21 01:47:16;;;;;;;0.00;0.00;;;;;;;16.97;100.00;99156.00;5076694;28;20040;-64
2023/06/21 01:49:44;;;;;;;0.00;0.00;;;;;;;16.99;100.00;99159.19;5076840;28;20076;-63
2023/06/21 01:52:11;;;;;;;0.00;0.00;;;;;;;16.88;100.00;99162.31;5079059;28;20051;-63
2023/06/21 01:54:43;;;;;;;0.00;0.00;;;;;;;16.84;100.00;99159.34;5073927;28;20089;-64
2023/06/21 01:57:11;;;;;;;0.00;0.00;;;;;;;16.91;100.00;99150.91;5086578;28;20060;-63
2023/06/21 01:59:41;;;;;;;0.00;0.00;;;;;;;16.91;100.00;99151.72;5073640;28;20494;-63
2023/06/21 02:02:09;;;;;;;0.00;0.00;;;;;;;16.86;100.00;99157.19;5075798;28;20040;-63
2023/06/21 02:04:38;;;;;;;0.00;0.00;;;;;;;16.89;100.00;99156.59;5080191;28;20048;-63
2023/06/21 02:07:07;;;;;;;0.10;0.10;;;;;;;16.96;100.00;99151.66;5092635;28;20052;-63
2023/06/21 02:09:35;;;;;;;0.00;0.00;;;;;;;17.01;100.00;99162.44;5073328;28;20055;-63
2023/06/21 02:12:03;;;;;;;0.00;0.00;;;;;;;17.09;100.00;99160.19;5081737;28;20110;-63
2023/06/21 02:14:31;;;;;;;0.10;0.10;;;;;;;17.16;100.00;99157.97;5083459;28;20048;-63
2023/06/21 02:16:59;;;;;;;0.10;0.10;;;;;;;17.21;100.00;99160.59;5074769;28;20036;-63
2023/06/21 02:19:28;;;;;;;0.10;0.10;;;;;;;17.15;100.00;99161.78;5078598;28;20120;-63
2023/06/21 02:21:57;;;;;;;0.10;0.10;;;;;;;17.14;100.00;99165.56;5083059;28;20052;-63
2023/06/21 02:24:25;;;;;;;0.03;0.00;;;;;;;17.17;100.00;99160.41;5083410;28;20053;-63
2023/06/21 02:26:52;;;;;;;0.10;0.10;;;;;;;17.18;100.00;99158.50;5081093;28;20081;-63
2023/06/21 02:29:20;;;;;;;0.00;0.00;;;;;;;17.23;100.00;99163.84;5085647;28;20051;-63
2023/06/21 02:31:47;;;;;;;0.00;0.00;;;;;;;17.25;100.00;99158.94;5074401;28;20052;-63
2023/06/21 02:34:15;;;;;;;0.00;0.00;;;;;;;17.15;100.00;99161.78;5091616;28;20057;-63
2023/06/21 02:36:53;;;;;;;0.10;0.10;;;;;;;17.20;100.00;99167.13;5072809;28;20040;-63
2023/06/21 02:39:24;;;;;;;0.10;0.10;;;;;;;17.12;100.00;99170.44;5080189;28;20036;-63
2023/06/21 02:41:54;;;;;;;0.00;0.00;;;;;;;17.06;100.00;99180.53;5074227;28;20040;-64
2023/06/21 02:44:22;;;;;;;0.08;0.08;;;;;;;17.06;100.00;99179.72;5078926;28;20143;-64
2023/06/21 02:46:49;;;;;;;0.10;0.10;;;;;;;16.93;100.00;99179.31;5076232;28;20044;-64
2023/06/21 02:49:17;;;;;;;0.00;0.00;;;;;;;16.86;100.00;99181.53;5073552;28;20125;-63
2023/06/21 02:51:46;;;;;;;0.00;0.00;;;;;;;16.81;100.00;99187.00;5080668;28;20383;-63
2023/06/21 02:54:15;;;;;;;0.22;0.10;;;;;;;16.94;100.00;99183.63;5098520;28;20032;-63
2023/06/21 02:56:45;;;;;;;0.00;0.00;;;;;;;16.97;100.00;99196.59;5081585;28;20439;-62
2023/06/21 02:59:12;;;;;;;0.00;0.00;;;;;;;17.06;100.00;99191.38;5086288;28;20147;-63
2023/06/21 03:01:40;;;;;;;0.00;0.00;;;;;;;17.04;100.00;99188.94;5077342;28;20064;-63
2023/06/21 03:04:07;;;;;;;0.10;0.10;;;;;;;17.02;100.00;99190.31;5079471;28;20041;-63
2023/06/21 03:06:35;;;;;;;0.00;0.00;;;;;;;16.93;100.00;99200.97;5077557;28;20119;-63
2023/06/21 03:09:05;;;;;;;0.10;0.10;;;;;;;16.92;100.00;99202.03;5084666;28;20144;-63
2023/06/21 03:11:33;;;;;;;0.03;0.03;;;;;;;16.86;100.00;99216.72;5077150;28;20052;-63
2023/06/21 03:14:02;;;;;;;0.10;0.10;;;;;;;16.87;100.00;99212.91;5078963;28;20495;-63
2023/06/21 03:16:30;;;;;;;0.10;0.10;;;;;;;16.85;100.00;99227.81;5077737;28;20127;-63
2023/06/21 03:18:57;;;;;;;0.10;0.10;;;;;;;16.86;100.00;99221.34;5071184;28;20415;-63
2023/06/21 03:21:25;;;;;;;0.00;0.00;;;;;;;16.86;100.00;99226.75;5074994;28;20122;-63
2023/06/21 03:23:53;;;;;;;0.17;0.10;;;;;;;16.82;100.00;99226.50;5098598;28;20043;-63
2023/06/21 03:26:20;;;;;;;0.13;0.05;;;;;;;16.90;100.00;99223.19;5068986;28;20105;-63
2023/06/21 03:28:48;;;;;;;0.10;0.10;;;;;;;16.97;100.00;99229.09;5078259;28;20576;-63
2023/06/21 03:31:19;;;;;;;0.00;0.00;;;;;;;17.00;100.00;99230.44;5068944;28;20516;-63
2023/06/21 03:33:48;;;;;;;0.10;0.10;;;;;;;17.00;100.00;99225.81;5068749;28;20075;-63
2023/06/21 03:36:16;;;;;;;0.10;0.10;;;;;;;16.93;100.00;99233.44;5094521;28;20478;-63
2023/06/21 03:38:43;;;;;;;0.10;0.10;;;;;;;16.97;100.00;99241.81;5077400;28;20109;-63
2023/06/21 03:41:11;;;;;;;0.20;0.20;;;;;;;16.84;100.00;99242.47;5068579;28;20074;-63
2023/06/21 03:43:39;;;;;;;0.22;0.10;;;;;;;16.98;100.00;99238.00;5054917;28;20495;-63
2023/06/21 03:46:11;;;;;;;0.20;0.20;;;;;;;17.07;100.00;99241.72;5091064;28;20049;-63
2023/06/21 03:48:41;;;;;;;0.00;0.00;;;;;;;17.32;100.00;99237.94;5087202;28;20045;-63
2023/06/21 03:51:09;;;;;;;0.00;0.00;;;;;;;17.50;100.00;99232.88;5072500;28;20173;-63
2023/06/21 03:53:37;;;;;;;0.20;0.20;;;;;;;17.72;100.00;99237.78;5074230;28;20086;-63
2023/06/21 03:56:04;;;;;;;0.00;0.00;;;;;;;18.28;100.00;99237.09;5077016;28;20051;-64
2023/06/21 03:58:33;;;;;;;0.15;0.15;;;;;;;18.63;100.00;99243.09;5073113;28;20491;-64
2023/06/21 04:01:00;;;;;;;0.05;0.05;;;;;;;18.11;100.00;99238.41;5076874;28;20040;-64
2023/06/21 04:03:27;;;;;;;0.15;0.15;;;;;;;18.25;100.00;99246.63;5078085;28;20048;-64
2023/06/21 04:05:56;;;;;;;0.10;0.10;;;;;;;18.28;100.00;99248.75;5074143;28;20497;-64
2023/06/21 04:08:25;;;;;;;0.00;0.00;;;;;;;19.40;100.00;99251.59;5070912;28;20073;-64
2023/06/21 04:10:53;;;;;;;0.10;0.10;;;;;;;21.01;89.32;99266.97;5074964;28;20143;-64
2023/06/21 04:13:20;;;;;;;0.15;0.10;;;;;;;20.44;91.47;99265.56;5077071;28;20080;-64
2023/06/21 04:15:48;;;;;;;0.05;0.05;;;;;;;20.69;90.44;99274.25;5069496;28;20052;-64
2023/06/21 04:18:16;;;;;;;0.10;0.10;;;;;;;20.84;89.19;99268.47;5074790;28;20044;-64
2023/06/21 04:20:43;;;;;;;0.20;0.20;;;;;;;21.69;85.17;99278.56;5081104;28;20040;-64
2023/06/21 04:23:12;;;;;;;0.10;0.10;;;;;;;22.21;82.24;99283.41;5072852;28;20048;-64
2023/06/21 04:25:40;;;;;;;0.10;0.10;;;;;;;21.54;85.12;99287.97;5074616;28;20056;-64
2023/06/21 04:28:10;;;;;;;0.10;0.10;;;;;;;21.12;88.95;99284.69;5058885;28;20067;-65
2023/06/21 04:30:37;;;;;;;0.10;0.10;;;;;;;21.24;87.38;99298.53;5071609;28;20037;-64
2023/06/21 04:33:05;;;;;;;0.05;0.05;;;;;;;21.30;86.11;99302.75;5070524;28;20049;-64
2023/06/21 04:35:33;;;;;;;0.00;0.00;;;;;;;21.15;86.79;99300.41;5066820;28;20046;-64
2023/06/21 04:38:00;;;;;;;0.10;0.10;;;;;;;20.92;89.26;99309.69;5079371;28;20089;-66
2023/06/21 04:40:32;;;;;;;0.00;0.00;;;;;;;20.42;93.13;99303.16;5072455;28;20036;-64
2023/06/21 04:43:02;;;;;;;0.00;0.00;;;;;;;19.95;95.52;99313.38;5073943;28;20059;-64
2023/06/21 04:45:31;;;;;;;0.00;0.00;;;;;;;19.02;100.00;99326.97;5074809;28;20048;-63
2023/06/21 04:47:59;;;;;;;0.00;0.00;;;;;;;18.72;100.00;99318.16;5074160;28;20051;-63
2023/06/21 04:50:26;;;;;;;0.10;0.10;;;;;;;18.67;100.00;99318.22;5080924;28;20422;-63
2023/06/21 04:52:57;;;;;;;0.10;0.10;;;;;;;19.47;100.00;99316.44;5077098;28;20414;-63
2023/06/21 04:55:26;;;;;;;0.00;0.00;;;;;;;20.00;98.12;99312.47;5072033;28;20086;-63
2023/06/21 04:57:55;;;;;;;0.10;0.10;;;;;;;21.43;88.21;99303.00;5080033;28;20486;-65
2023/06/21 05:00:23;;;;;;;0.10;0.10;;;;;;;21.03;89.45;99295.50;5077307;28;20405;-63
2023/06/21 05:02:54;;;;;;;0.08;0.08;;;;;;;21.62;86.56;99300.84;5077774;28;20040;-66
2023/06/21 05:05:23;;;;;;;0.10;0.10;;;;;;;21.63;85.50;99296.22;5070946;28;20044;-64
2023/06/21 05:07:51;;;;;;;0.00;0.00;;;;;;;19.89;96.42;99306.41;5075177;28;20217;-63
2023/06/21 05:10:20;;;;;;;0.00;0.00;;;;;;;19.39;100.00;99308.94;5070655;28;20494;-63
2023/06/21 05:13:33;;;;;;;0.10;0.10;;;;;;;18.96;100.00;99303.69;5073546;28;20056;-66
2023/06/21 05:16:01;;;;;;;0.00;0.00;;;;;;;18.85;100.00;99308.50;5078227;28;20064;-63
2023/06/21 05:18:28;;;;;;;0.10;0.10;;;;;;;18.68;100.00;99306.25;5079741;28;20032;-63
2023/06/21 05:20:56;;;;;;;0.00;0.00;;;;;;;19.83;99.42;99304.91;5069282;28;20063;-63
2023/06/21 05:23:24;;;;;;;0.10;0.10;;;;;;;19.61;100.00;99300.94;5066266;28;20076;-63
2023/06/21 05:25:52;;;;;;;0.10;0.10;;;;;;;20.44;94.38;99300.13;5076786;28;20045;-63
2023/06/21 05:28:19;;;;;;;0.10;0.10;;;;;;;21.80;88.89;99317.31;5077156;28;20052;-63
2023/06/21 05:30:48;;;;;;;0.10;0.10;;;;;;;23.27;77.82;99319.47;5079099;28;20059;-63
2023/06/21 05:33:16;;;;;;;0.10;0.10;;;;;;;24.29;73.31;99331.50;5074780;28;20431;-63
2023/06/21 05:35:43;;;;;;;0.10;0.10;;;;;;;24.73;71.78;99338.28;5070027;28;20044;-63
2023/06/21 05:38:11;;;;;;;0.00;0.00;;;;;;;23.54;74.75;99337.41;5081098;28;20905;-62
2023/06/21 05:40:38;;;;;;;0.00;0.00;;;;;;;23.59;75.21;99344.66;5072647;28;20538;-65
2023/06/21 05:43:06;;;;;;;0.03;0.00;;;;;;;22.10;82.37;99342.94;5073429;28;20134;-60
2023/06/21 05:45:34;;;;;;;0.00;0.00;;;;;;;24.19;72.90;99343.63;5072342;28;20455;-64
2023/06/21 05:48:03;;;;;;;0.00;0.00;;;;;;;23.26;76.70;99342.44;5080154;28;20043;-61
2023/06/21 05:50:31;;;;;;;0.00;0.00;;;;;;;23.10;78.13;99346.81;5070676;28;20739;-61
2023/06/21 05:52:58;;;;;;;0.00;0.00;;;;;;;23.15;76.44;99344.72;5074656;28;20406;-61
2023/06/21 05:55:26;;;;;;;0.00;0.00;;;;;;;23.12;77.14;99352.78;5070777;28;20097;-61
2023/06/21 05:57:54;;;;;;;0.00;0.00;;;;;;;23.34;76.85;99358.06;5079454;28;20051;-60
2023/06/21 06:00:21;;;;;;;0.00;0.00;;;;;;;23.13;77.16;99360.63;5073476;28;20039;-61
2023/06/21 06:02:49;;;;;;;0.00;0.00;;;;;;;22.32;79.51;99361.97;5080549;28;20044;-61
2023/06/21 06:05:18;;;;;;;0.03;0.03;;;;;;;23.16;78.21;99350.97;5072953;28;20120;-61
2023/06/21 06:07:45;;;;;;;0.00;0.00;;;;;;;22.64;79.45;99351.75;5075706;28;20099;-62
2023/06/21 06:10:16;;;;;;;0.00;0.00;;;;;;;23.83;75.45;99364.03;5073716;28;20129;-62
2023/06/21 06:12:44;;;;;;;0.00;0.00;;;;;;;24.89;71.52;99360.44;5074458;28;20445;-62
2023/06/21 06:15:11;;;;;;;0.00;0.00;;;;;;;25.45;67.04;99351.88;5078060;28;20143;-62
2023/06/21 06:17:39;;;;;;;0.00;0.00;;;;;;;25.09;69.79;99369.00;5083169;28;20491;-62
2023/06/21 06:20:07;;;;;;;0.00;0.00;;;;;;;26.22;65.89;99359.56;5077083;28;20052;-62
2023/06/21 06:22:36;;;;;;;0.00;0.00;;;;;;;26.58;63.62;99355.19;5078014;28;20105;-61
2023/06/21 06:25:04;;;;;;;0.00;0.00;;;;;;;23.99;72.77;99371.72;5078477;28;20049;-61
2023/06/21 06:27:32;;;;;;;0.10;0.10;;;;;;;26.26;67.24;99365.97;5080505;28;20047;-61
2023/06/21 06:29:59;;;;;;;0.00;0.00;;;;;;;25.30;68.76;99363.50;5080413;28;20083;-62
2023/06/21 06:32:27;;;;;;;0.00;0.00;;;;;;;24.50;70.62;99364.41;5085896;28;20043;-61
2023/06/21 06:34:54;;;;;;;0.00;0.00;;;;;;;25.43;68.89;99378.84;5084367;28;20421;-61
2023/06/21 06:37:24;;;;;;;0.00;0.00;;;;;;;25.66;66.80;99386.69;5078429;28;20048;-62
2023/06/21 06:39:54;;;;;;;0.00;0.00;;;;;;;26.24;64.86;99382.78;5075123;28;20048;-61
2023/06/21 06:42:22;;;;;;;0.03;0.03;;;;;;;27.32;61.73;99399.81;5081559;28;20509;-61
2023/06/21 06:44:50;;;;;;;0.00;0.00;;;;;;;27.69;60.72;99399.66;5076481;28;20048;-61
2023/06/21 06:47:18;;;;;;;0.10;0.00;;;;;;;26.27;63.49;99405.25;5074300;28;20507;-61
2023/06/21 06:49:45;;;;;;;0.00;0.00;;;;;;;25.82;66.96;99410.41;5073368;28;20043;-61
2023/06/21 06:52:12;;;;;;;0.00;0.00;;;;;;;26.12;65.51;99403.97;5085101;28;20044;-61
2023/06/21 06:54:40;;;;;;;0.08;0.08;;;;;;;25.67;67.14;99404.78;5075208;28;20040;-61
2023/06/21 06:57:09;;;;;;;0.00;0.00;;;;;;;26.21;65.13;99401.94;5079051;28;20059;-61
2023/06/21 06:59:36;;;;;;;;;;;;;;;25.34;69.58;99402.84;5081254;28;20040;-61
2023/06/21 07:02:04;;;;;;;0.00;0.00;;;;;;;24.17;73.71;99408.84;5087056;28;19969;-62
2023/06/21 07:04:32;;;;;;;0.00;0.00;;;;;;;25.06;71.19;99408.84;5081029;28;20141;-60
2023/06/21 07:07:01;;;;;;;0.00;0.00;;;;;;;23.41;76.82;99407.59;5077890;28;20044;-62
2023/06/21 07:09:29;;;;;;;0.00;0.00;;;;;;;25.17;70.43;99415.53;5077979;28;20040;-62
2023/06/21 07:11:56;;;;;;;0.00;0.00;;;;;;;25.92;68.12;99406.44;5078285;28;20064;-62
2023/06/21 07:14:25;;;;;;;0.00;0.00;;;;;;;22.35;81.67;99420.59;5076744;28;20055;-61
2023/06/21 07:16:53;;;;;;;0.10;0.10;;;;;;;22.07;86.95;99411.78;5078208;28;20383;-62
2023/06/21 07:19:20;;;;;;;0.00;0.00;;;;;;;24.78;73.77;99407.75;5078936;28;20659;-62
2023/06/21 07:21:48;;;;;;;0.10;0.10;;;;;;;24.20;76.38;99410.94;5082789;28;20093;-61
2023/06/21 07:24:15;;;;;;;0.00;0.00;;;;;;;22.72;81.56;99413.00;5080158;28;20098;-61
2023/06/21 07:26:42;;;;;;;0.00;0.00;;;;;;;22.07;87.78;99412.59;5074892;28;20623;-61
2023/06/21 07:29:10;;;;;;;0.00;0.00;;;;;;;24.06;77.43;99419.38;5075898;28;20087;-61
2023/06/21 07:31:39;;;;;;;0.00;0.00;;;;;;;23.85;76.38;99419.28;5076801;28;20514;-61
2023/06/21 07:34:08;;;;;;;0.05;0.05;;;;;;;25.89;69.42;99415.38;5080658;28;20049;-62
2023/06/21 07:36:35;;;;;;;0.00;0.00;;;;;;;26.64;66.33;99417.84;5080416;28;20040;-61
2023/06/21 07:39:04;;;;;;;0.00;0.00;;;;;;;25.85;69.33;99416.38;5079457;28;20040;-61
2023/06/21 07:41:31;;;;;;;0.00;0.00;;;;;;;28.58;58.70;99415.69;5075041;28;20041;-61
2023/06/21 07:43:59;;;;;;;0.00;0.00;;;;;;;26.86;63.47;99427.56;5070301;28;20075;-61
2023/06/21 07:46:26;;;;;;;0.00;0.00;;;;;;;29.74;55.12;99427.19;5079362;28;20134;-61
2023/06/21 07:48:55;;;;;;;0.00;0.00;;;;;;;28.31;57.41;99430.38;5078202;28;20123;-61
2023/06/21 07:51:22;;;;;;;;;;;;;;;26.62;65.72;99427.59;5069974;28;20090;-61
2023/06/21 07:53:49;;;;;;;0.00;0.00;;;;;;;28.88;58.22;99422.63;5079766;28;19928;-61
2023/06/21 07:56:17;;;;;;;0.00;0.00;;;;;;;28.95;56.82;99422.78;5075181;28;20127;-61
2023/06/21 07:58:46;;;;;;;0.00;0.00;;;;;;;26.86;63.06;99410.25;5075851;28;20051;-62
2023/06/21 08:01:13;;;;;;;;;;;;;;;29.64;54.44;99414.75;5078583;28;20433;-61
2023/06/21 08:03:40;;;;;;;0.00;0.00;;;;;;;28.90;53.90;99412.03;5068481;28;20365;-62
2023/06/21 08:06:09;;;;;;;0.00;0.00;;;;;;;28.72;56.59;99414.41;5080441;28;20040;-62
2023/06/21 08:08:36;;;;;;;;;;;;;;;30.76;50.23;99400.84;5078314;28;20045;-59
2023/06/21 08:11:04;;;;;;;0.00;0.00;;;;;;;27.01;59.38;99405.97;5078700;28;19930;-61
2023/06/21 08:13:32;;;;;;;0.00;0.00;;;;;;;27.86;58.72;99390.28;5076810;28;20492;-61
2023/06/21 08:15:59;;;;;;;0.00;0.00;;;;;;;27.34;59.32;99385.72;5079780;28;20798;-61
2023/06/21 08:18:27;;;;;;;0.00;0.00;;;;;;;30.06;53.38;99391.84;5084646;28;20124;-61
2023/06/21 08:20:54;;;;;;;0.00;0.00;;;;;;;30.60;50.19;99387.94;5082037;28;20090;-61
2023/06/21 08:23:23;;;;;;;0.00;0.00;;;;;;;30.44;50.16;99390.09;5063355;28;20048;-62
2023/06/21 08:25:50;;;;;;;;;;;;;;;25.67;64.25;99394.59;5080902;28;20079;-63
2023/06/21 08:28:18;;;;;;;0.00;0.00;;;;;;;26.14;64.30;99385.22;5077301;28;19955;-61
2023/06/21 08:30:45;;;;;;;0.00;0.00;;;;;;;29.00;53.32;99389.41;5076125;28;20120;-61
2023/06/21 08:33:13;;;;;;;0.00;0.00;;;;;;;30.05;50.65;99390.22;5082254;28;20055;-60
2023/06/21 08:35:40;;;;;;;0.00;0.00;;;;;;;31.55;47.14;99389.59;5080493;28;20044;-59
2023/06/21 08:38:08;;;;;;;0.00;0.00;;;;;;;31.04;46.60;99390.16;5082785;28;20134;-62
2023/06/21 08:40:37;;;;;;;0.00;0.00;;;;;;;27.73;52.87;99390.34;5077818;28;20044;-62
2023/06/21 08:43:05;;;;;;;0.20;0.00;;;;;;;27.90;56.53;99391.16;5078126;28;20079;-59
2023/06/21 08:45:32;;;;;;;0.00;0.00;;;;;;;29.80;51.26;99385.06;5070606;28;20044;-60
2023/06/21 08:48:01;;;;;;;0.00;0.00;;;;;;;30.97;46.80;99386.50;5081443;28;20052;-60
2023/06/21 08:50:30;;;;;;;0.00;0.00;;;;;;;29.87;49.18;99384.41;5076421;28;20071;-60
2023/06/21 08:52:58;;;;;;;0.00;0.00;;;;;;;31.24;47.19;99382.47;5081492;28;20045;-60
2023/06/21 08:55:25;;;;;;;;;;;;;;;29.91;48.66;99379.75;5078827;28;20040;-60
2023/06/21 08:57:56;;;;;;;0.00;0.00;;;;;;;29.65;49.18;99397.00;5074685;28;20390;-61
2023/06/21 09:00:24;;;;;;;0.00;0.00;;;;;;;29.10;50.79;99401.84;5070722;28;20150;-61
2023/06/21 09:02:56;;;;;;;0.00;0.00;;;;;;;27.82;54.65;99400.41;5085747;28;20133;-61
2023/06/21 09:05:28;;;;;;;0.00;0.00;;;;;;;27.45;55.53;99392.31;5079260;28;20076;-60
2023/06/21 09:07:58;;;;;;;0.00;0.00;;;;;;;28.43;53.30;99394.44;5081689;28;20502;-61
2023/06/21 09:10:27;;;;;;;0.00;0.00;;;;;;;28.63;53.94;99400.00;5077434;28;20483;-60
2023/06/21 09:12:56;;;;;;;0.00;0.00;;;;;;;27.43;56.01;99400.94;5074122;28;20081;-60
2023/06/21 09:15:24;;;;;;;;;;;;;;;28.51;53.44;99407.25;5073993;28;20040;-61
2023/06/21 09:17:51;;;;;;;0.00;0.00;;;;;;;27.13;57.99;99407.88;5093168;28;20022;-60
2023/06/21 09:20:19;;;;;;;0.00;0.00;;;;;;;27.07;58.06;99404.56;5074172;28;20037;-62
2023/06/21 09:22:47;;;;;;;0.00;0.00;;;;;;;29.23;52.02;99406.06;5080198;28;20408;-62
2023/06/21 09:25:17;;;;;;;0.00;0.00;;;;;;;26.47;60.09;99420.81;5075685;28;20047;-62
2023/06/21 09:27:44;;;;;;;0.00;0.00;;;;;;;28.25;55.58;99412.50;5078197;28;20047;-61
2023/06/21 09:30:14;;;;;;;0.00;0.00;;;;;;;29.04;52.89;99409.59;5077371;28;20048;-61
2023/06/21 09:32:42;;;;;;;0.03;0.03;;;;;;;28.00;54.31;99404.41;5078307;28;20044;-59
2023/06/21 09:35:10;;;;;;;0.00;0.00;;;;;;;26.85;57.91;99403.94;5083082;28;20068;-62
2023/06/21 09:37:39;;;;;;;0.00;0.00;;;;;;;26.59;60.27;99417.28;5076315;28;20048;-63
2023/06/21 09:40:10;;;;;;;0.00;0.00;;;;;;;26.88;60.44;99413.44;5079703;28;20123;-62
2023/06/21 09:42:38;;;;;;;0.00;0.00;;;;;;;26.50;60.97;99411.06;5073064;28;20467;-62
2023/06/21 09:45:09;;;;;;;0.00;0.00;;;;;;;26.84;60.42;99413.34;5074670;28;20134;-60
2023/06/21 09:47:40;;;;;;;0.00;0.00;;;;;;;26.94;59.72;99408.53;5074532;28;20043;-60
2023/06/21 09:50:08;;;;;;;0.00;0.00;;;;;;;29.98;51.55;99409.44;5073558;28;20384;-62
2023/06/21 09:52:35;;;;;;;0.00;0.00;;;;;;;29.48;49.30;99417.63;5080211;28;20486;-62
2023/06/21 09:55:03;;;;;;;0.00;0.00;;;;;;;29.32;50.94;99414.91;5077097;28;20048;-62
2023/06/21 09:57:31;;;;;;;0.00;0.00;;;;;;;28.82;51.42;99420.16;5075741;28;20555;-62
2023/06/21 09:59:59;;;;;;;0.00;0.00;;;;;;;27.36;54.06;99421.91;5071857;28;20437;-62
2023/06/21 10:02:27;;;;;;;0.00;0.00;;;;;;;27.13;57.35;99427.94;5078647;28;20048;-61
2023/06/21 10:04:56;;;;;;;0.00;0.00;;;;;;;28.38;52.01;99427.75;5087494;28;20036;-61
2023/06/21 10:07:26;;;;;;;0.00;0.00;;;;;;;29.94;48.42;99433.47;5080256;28;20048;-61
2023/06/21 10:09:54;;;;;;;0.00;0.00;;;;;;;30.39;44.79;99432.69;5079895;28;20041;-61
2023/06/21 10:12:21;;;;;;;0.00;0.00;;;;;;;29.95;42.67;99433.09;5085480;28;20043;-61
2023/06/21 10:14:49;;;;;;;0.00;0.00;;;;;;;27.78;46.37;99438.00;5081650;28;20051;-61
2023/06/21 10:17:16;;;;;;;0.00;0.00;;;;;;;27.58;47.95;99439.84;5077631;28;20416;-62
2023/06/21 10:19:44;;;;;;;0.00;0.00;;;;;;;28.91;47.31;99444.00;5086447;28;20176;-61
2023/06/21 10:22:20;;;;;;;0.00;0.00;;;;;;;29.97;45.43;99444.56;5076118;28;20266;-61
2023/06/21 10:24:48;;;;;;;0.00;0.00;;;;;;;30.28;43.66;99442.78;5075717;28;20071;-61
2023/06/21 10:27:16;;;;;;;0.00;0.00;;;;;;;30.96;42.56;99438.28;5085726;28;20159;-61
2023/06/21 10:29:44;;;;;;;0.00;0.00;;;;;;;31.58;40.11;99447.00;5078806;28;20067;-61
2023/06/21 10:32:12;;;;;;;0.00;0.00;;;;;;;31.87;40.45;99441.75;5080751;28;20036;-62
2023/06/21 10:34:52;;;;;;;0.00;0.00;;;;;;;32.14;40.59;99444.41;5079091;28;20306;-62
2023/06/21 10:37:25;;;;;;;0.00;0.00;;;;;;;31.66;40.89;99447.06;5081985;28;20122;-60
2023/06/21 10:39:53;;;;;;;0.00;0.00;;;;;;;32.09;39.76;99439.22;5075056;28;20072;-60
2023/06/21 10:42:21;;;;;;;0.00;0.00;;;;;;;31.18;41.83;99442.16;5082228;28;20135;-60
2023/06/21 10:44:49;;;;;;;0.00;0.00;;;;;;;30.85;41.94;99448.41;5077538;28;20296;-59
2023/06/21 10:47:16;;;;;;;0.00;0.00;;;;;;;31.28;40.31;99438.72;5077294;28;20040;-61
2023/06/21 10:49:44;;;;;;;0.00;0.00;;;;;;;31.83;40.81;99442.88;5078559;28;20106;-60
2023/06/21 10:52:12;;;;;;;0.00;0.00;;;;;;;32.59;38.91;99436.84;5083140;28;20506;-60
2023/06/21 10:54:41;;;;;;;0.00;0.00;;;;;;;33.03;38.83;99433.97;5086975;28;20098;-59
2023/06/21 10:57:08;;;;;;;0.00;0.00;;;;;;;33.32;37.67;99436.88;5082306;28;20401;-60
2023/06/21 10:59:36;;;;;;;0.00;0.00;;;;;;;33.54;37.42;99434.16;5079363;28;20037;-60
2023/06/21 11:02:04;;;;;;;0.00;0.00;;;;;;;32.86;39.01;99435.44;5081388;28;20052;-60
2023/06/21 11:04:32;;;;;;;0.00;0.00;;;;;;;32.07;38.48;99441.56;5080348;28;20101;-60
2023/06/21 11:07:00;;;;;;;0.20;0.00;;;;;;;32.11;37.08;99439.63;5077793;28;20048;-62
2023/06/21 11:09:28;;;;;;;0.00;0.00;;;;;;;32.49;37.69;99438.38;5082871;28;20068;-60
2023/06/21 11:11:56;;;;;;;0.00;0.00;;;;;;;32.39;38.80;99437.09;5076895;28;20044;-61
2023/06/21 11:14:29;;;;;;;0.00;0.00;;;;;;;30.26;41.11;99431.28;5087066;28;20391;-59
2023/06/21 11:17:07;;;;;;;0.00;0.00;;;;;;;30.23;41.15;99429.22;5079173;28;20042;-60
2023/06/21 11:19:37;;;;;;;0.00;0.00;;;;;;;29.12;42.37;99432.63;5076587;28;20131;-60
2023/06/21 11:22:15;;;;;;;0.00;0.00;;;;;;;29.64;41.96;99431.31;5083817;28;20131;-59
2023/06/21 11:24:50;;;;;;;0.00;0.00;;;;;;;30.31;42.28;99429.00;5083688;28;20440;-59
2023/06/21 11:27:19;;;;;;;0.00;0.00;;;;;;;31.72;39.90;99434.47;5077748;28;20433;-61
2023/06/21 11:29:59;;;;;;;0.00;0.00;;;;;;;32.53;38.49;99433.66;5079694;28;20043;-61
2023/06/21 11:32:28;;;;;;;0.00;0.00;;;;;;;32.72;38.17;99438.13;5083158;28;20127;-61
2023/06/21 11:34:57;;;;;;;0.00;0.00;;;;;;;33.01;37.90;99438.31;5083857;28;20055;-61
2023/06/21 11:37:32;;;;;;;0.00;0.00;;;;;;;31.48;40.85;99436.59;5081765;28;20482;-61
2023/06/21 11:40:00;;;;;;;0.00;0.00;;;;;;;31.27;39.78;99436.31;5071216;28;20557;-61